Airfield :
LOGIN :

Register | Disclaimer

   EN    FR    IT 

 










Legend :    VFR   Marginal VFR   IFR   Intensive IFR   Very Intensive IFR
Visi :
Ceiling :
>= 8 km
>= 3000ft
5 to 8 km
1000 to 3000 ft
1500m to 5 km
500 to 1000 ft
800 to 1500m
200 to 500 ft
< 800m
< 200 ft
Symbols :   Thunderstorms  Fog  Heavy snow  Heavy precipitations  Wind > 20 kt
SIGMETs :     Misc.  Thunderstorms  Icing  Turbulence  Mountain Waves  Volcanic Ashes






- Airport Elevation : 52 ft
- IATA code : RNN


EKRN - Bornholm Ronne

CURRENT METAR :
  • 281020Z AUTO 22018KT 9999 OVC009/// 11/10 Q1006

EXPIRED METARs :
  • 280950Z AUTO 21019KT 9999 OVC007/// 11/10 Q1006
  • 280920Z AUTO 20017KT 9999 -SHRA OVC006/// 10/10 Q1005
  • 280850Z AUTO 21018KT 4400 -SHRA BR OVC005/// 10/10 Q1005
  • 280820Z AUTO 21020KT 3200 -RA BR OVC005/// 10/10 Q1005
  • 280750Z AUTO 20019KT 4200 BR OVC005/// 10/10 Q1005

TAF TAF EKRN
Valid from the 28 at 09:00 until the 28 at 18:00 UTC


280823Z 2809/2818 20020KT 9999 SCT020
TEMPO 2809/2811 4000 BR BKN005
TEMPO 2811/2812 BKN010 SCT020TCU
TEMPO 2812/2818 SCT020TCU



MET'MAP, your aeronautical weather chart ! - Copyright ORBIFLY December 2007 - Disclaimer

ORBIFLY MET'MAP TEAM :

Programming & Development : Alexandra Zaïnal
Concept & original design : Baudouin d'Aumeries
Assistance for programming : Marc-Olivier Méhu
Technical & hardware support : Manuel Goepfert

Contact : metmap@orbifly.com




SOURCES & CREDITS :

   NOAA